Alachua, Florida
Current Conditions -  °F | °C
As of 8:53 AM on Tuesday 21 Oct 2014 (Local Time) from KGNV Reporting Station
Clear Clear  
Wind Chill: 66°   Ceiling: Unl
Heat Index: 66°   Visibility: 10mi
Dew Point: 62°   Wind: 3mph
Humidity: 87%   Direction: 330°NNW
Pressure: 29.98"   Gusts: NA
Location:  29.78°N, 82.48°W
Report Text: KGNV 211253Z 33003KT 10SM CLR 19/17 A2998 RMK AO2 SLP150 T01890167
Loading
Personal Weather Stations






























Interactive Weather Map
Tropical Storm Tracking
New forecast layout! Learn more

10-Day Weather Forecast

Advertisements
Track Severe Weather on mobile